• Join FlightAware (Why Join?)
  • Login
  • US Flag 
01:06AM EDT


 

Airport Tracker/Info


-or-


 

Live Flight TrackerFlight Track Log ✈ EJA922 ✈ 21-Jun-2013 ✈ KTEB - KPTK

Flight Track Log - Related Links

Times and Time Zones

All times are in EDT time to prevent confusion due to time zone crossing. See the EJA922 flight status page for this flight to view local times or setup timezone preferences in your user account.

Time Position Orientation Groundspeed Altitude Reporting Facility
EDT Latitude Longitude Course Direction KTS MPH feet Rate Location/Type
10:34AM 40.8167 -74.1333 323° Northwest 205 236 1,600  Level New York TRACON
10:35AM 40.8167 -74.2167 270° West 240 276 2,100 2,160 Climbing New York TRACON
10:37AM 40.8333 -74.3167 282° West 276 318 6,200 3,420 Climbing New York TRACON
10:38AM 40.9000 -74.3500 339° North 285 328 9,400 2,040 Climbing New York TRACON
10:38AM 40.9667 -74.3833 339° North 283 326 10,100 1,020 Climbing New York TRACON
10:40AM 41.4582 -74.4916 323° Northwest  Level FlightAware Approximate
10:40AM 41.0667 -74.4000 353° North 329 379 11,500  Level New York TRACON
10:41AM 41.2356 -74.3769 North 387 445 15,100 1,620 Climbing New York Center
10:42AM 41.3608 -74.3728 North 393 452 16,100 1,380 Climbing New York Center
10:43AM 41.4417 -74.4489 325° Northwest 388 447 17,900 1,560 Climbing New York Center
10:44AM 41.4947 -74.5517 305° West 358 412 19,300 1,560 Climbing New York Center
10:45AM 41.5547 -74.6936 299° West 381 438 21,100 1,500 Climbing New York Center
10:46AM 41.6086 -74.8244 299° West 395 455 22,400 1,260 Climbing New York Center
10:47AM 41.6664 -74.9583 300° West 407 468 23,600 1,200 Climbing New York Center
10:48AM 41.7239 -75.0981 299° West 419 482 24,800 1,320 Climbing New York Center
10:49AM 41.7831 -75.2383 300° West 424 488 26,300 1,260 Climbing New York Center
10:50AM 41.8422 -75.3786 300° West 429 494 27,400 1,020 Climbing New York Center
10:51AM 41.9050 -75.5278 300° West 436 502 28,300 1,020 Climbing New York Center
10:52AM 41.9636 -75.6744 298° West 441 507 29,500 1,740 Climbing New York Center
10:53AM 42.0319 -75.8358 300° West 453 521 31,900 1,980 Climbing New York Center
10:54AM 42.0844 -75.9656 299° West 448 516 33,500 2,100 Climbing New York Center
10:55AM 42.1450 -76.1044 300° West 443 510 36,100 2,160 Climbing New York Center
10:57AM 42.2192 -76.3322 294° West 420 483 39,100 1,500 Climbing Cleveland Center
10:58AM 42.2686 -76.4889 293° West 429 494 40,000 420 Climbing Cleveland Center
10:59AM 42.3200 -76.6458 294° West 448 516 40,000  Level Cleveland Center
11:00AM 42.3714 -76.8111 293° West 466 536 40,000  Level Cleveland Center
11:01AM 42.4247 -76.9769 294° West 472 543 40,000  Level Cleveland Center
11:02AM 42.4756 -77.1400 293° West 477 549 40,000  Level Cleveland Center
11:03AM 42.5264 -77.3092 292° West 477 549 40,000  Level Cleveland Center
11:04AM 42.5792 -77.4814 293° West 484 557 40,000  Level Cleveland Center
11:05AM 42.6314 -77.6508 293° West 491 565 40,000  Level Cleveland Center
11:06AM 42.6903 -77.8431 293° West 491 565 40,000  Level Cleveland Center
11:07AM 42.7419 -78.0078 293° West 486 559 40,000  Level Cleveland Center
11:08AM 42.7917 -78.1783 292° West 486 559 40,000 -1,020 Level Cleveland Center
11:09AM 42.8408 -78.3464 292° West 486 559 38,000 -2,220 Descending Cleveland Center
11:10AM 42.8897 -78.5089 292° West 476 548 35,600 -2,040 Descending Cleveland Center
11:11AM 42.9322 -78.6833 288° West 476 548 34,000 -840 Descending Cleveland Center
11:12AM 42.9436 -78.8731 275° West 487 560 34,000  Level Cleveland Center
11:13AM 42.9500 -79.0167 274° West 510 587 34,000  Level Toronto Center
11:14AM 42.9500 -79.2000 270° West 500 575 34,000 -420 Level Toronto Center
11:15AM 42.9500 -79.3833 270° West 500 575 33,200 -1,680 Descending Toronto Center
11:16AM 42.9333 -79.5667 263° West 480 552 30,700 -1,620 Descending Toronto Center
11:17AM 42.9333 -79.7500 270° West 500 575 30,000 -360 Descending Toronto Center
11:18AM 42.9167 -79.9333 263° West 500 575 30,000  Level Toronto Center
11:19AM 42.9167 -80.1333 270° West 510 587 30,000  Level Toronto Center
11:20AM 42.9000 -80.3167 263° West 510 587 30,000 -60 Level Toronto Center
11:21AM 42.9000 -80.5167 270° West 510 587 29,900 -600 Descending Toronto Center
11:22AM 42.9000 -80.7000 270° West 510 587 28,800 -960 Descending Toronto Center
11:23AM 42.8667 -80.8833 256° West 500 575 28,000 -1,200 Descending Toronto Center
11:24AM 42.8667 -81.0833 270° West 490 564 26,500 -1,980 Descending Toronto Center
11:25AM 42.8500 -81.2667 263° West 490 564 24,100 -2,760 Descending Toronto Center
11:26AM 42.8592 -81.4556 274° West 475 547 21,100 -2,940 Descending Cleveland Center
11:27AM 42.8494 -81.6139 265° West 446 513 18,300 -2,760 Descending Cleveland Center
11:28AM 42.8417 -81.7667 266° West 413 475 15,600 -2,520 Descending Cleveland Center
11:29AM 42.8342 -81.8997 266° West 407 468 13,300 -1,800 Descending Cleveland Center
11:30AM 42.8156 -82.0464 260° West 401 461 12,000 -1,080 Descending Cleveland Center
11:31AM 42.7806 -82.1842 251° West 396 456 11,200 -960 Descending Cleveland Center
11:32AM 42.7681 -82.3253 263° West 390 449 10,100 -600 Descending Cleveland Center
11:33AM 42.7619 -82.4497 266° West 367 422 10,100  Level Cleveland Center
11:34AM 42.7581 -82.5542 267° West 322 371 10,100  Level Cleveland Center